Time;durP1;ratioP1;P1;durP2;ratioP2;P2;SDS_P1;SDS_P2;PMS_P1;PMS_P2;Temp;Humidity;BMP_temperature;BMP_pressure;BME280_temperature;BME280_humidity;BME280_pressure;Samples;Min_cycle;Max_cycle;Signal;HPM_P1;HPM_P2
2024/03/11 00:07:59;;;;;;;15.50;8.00;;;;;;;6.14;64.40;100032.41;682090;1265;139865;-78
2024/03/11 00:23:03;;;;;;;13.40;6.30;;;;;;;6.25;64.08;100025.39;682214;1265;139323;-79
2024/03/11 00:38:07;;;;;;;17.90;7.50;;;;;;;5.90;63.54;100019.36;682335;1261;138918;-79
2024/03/11 00:53:11;;;;;;;12.50;7.40;;;;;;;5.76;64.18;100011.90;682180;1274;138992;-79
2024/03/11 01:08:16;;;;;;;11.00;6.20;;;;;;;5.66;63.45;99999.38;682208;1265;138717;-79
2024/03/11 01:23:22;;;;;;;11.60;6.40;;;;;;;5.65;63.14;99980.35;681947;1262;138572;-79
2024/03/11 01:38:27;;;;;;;12.80;6.80;;;;;;;5.52;62.80;99966.54;682085;1265;138454;-79
2024/03/11 01:53:31;;;;;;;11.50;6.30;;;;;;;5.76;62.22;99969.85;681928;1266;138909;-79
2024/03/11 02:08:34;;;;;;;12.20;5.80;;;;;;;5.74;62.65;99962.73;681980;1266;138526;-79
2024/03/11 02:23:38;;;;;;;11.80;6.20;;;;;;;5.77;61.92;99955.20;681998;1264;138923;-78
2024/03/11 02:38:41;;;;;;;12.10;6.10;;;;;;;5.64;61.70;99947.80;682103;1264;139089;-78
2024/03/11 02:53:45;;;;;;;10.40;5.40;;;;;;;5.65;62.32;99952.61;682152;1274;139510;-79
2024/03/11 03:08:49;;;;;;;11.90;6.90;;;;;;;5.52;61.74;99948.53;682074;1263;139779;-78
2024/03/11 03:23:52;;;;;;;14.60;5.80;;;;;;;5.32;62.20;99951.88;681910;1260;138492;-78
2024/03/11 03:38:56;;;;;;;14.10;6.30;;;;;;;5.22;62.38;99947.36;681917;1260;138576;-78
2024/03/11 03:53:59;;;;;;;13.30;6.10;;;;;;;5.18;62.15;99949.05;681775;1265;138588;-79
2024/03/11 04:09:08;;;;;;;22.00;8.60;;;;;;;5.02;62.45;99939.02;682115;1260;138864;-79
2024/03/11 04:24:11;;;;;;;;;;;;;;;5.07;62.72;99925.69;682151;1264;138541;-79
2024/03/11 04:39:15;;;;;;;11.10;6.20;;;;;;;5.11;62.98;99927.81;682068;1276;125612;-79
2024/03/11 04:54:19;;;;;;;13.20;6.00;;;;;;;5.09;62.88;99926.98;682051;1260;138750;-79
2024/03/11 05:09:22;;;;;;;14.60;6.90;;;;;;;5.10;62.99;99931.89;681955;1261;138509;-79
2024/03/11 05:24:25;;;;;;;13.50;6.20;;;;;;;5.11;63.18;99939.11;682104;1260;139095;-80
2024/03/11 05:39:29;;;;;;;11.90;6.10;;;;;;;5.12;62.24;99936.30;681888;1265;138506;-78
2024/03/11 05:54:33;;;;;;;30.10;15.70;;;;;;;5.07;62.84;99941.83;682198;1261;138360;-79
2024/03/11 06:09:36;;;;;;;12.70;6.40;;;;;;;5.06;63.39;99937.37;682078;1261;139282;-80
2024/03/11 06:24:39;;;;;;;16.90;7.00;;;;;;;4.99;63.91;99944.65;682196;1260;139769;-80
2024/03/11 06:39:42;;;;;;;13.60;7.90;;;;;;;4.82;65.67;99951.14;681954;1260;138531;-80
2024/03/11 06:54:46;;;;;;;31.10;14.70;;;;;;;4.58;67.69;99958.35;682152;1260;139584;-78
2024/03/11 07:09:50;;;;;;;79.50;27.90;;;;;;;4.56;69.16;99965.27;682129;1261;138875;-78
2024/03/11 07:24:53;;;;;;;57.70;22.70;;;;;;;4.63;69.07;99969.94;682171;1261;138807;-78
2024/03/11 07:39:56;;;;;;;60.20;20.70;;;;;;;4.59;70.56;99986.91;681998;1265;140073;-79
2024/03/11 07:55:00;;;;;;;23.70;11.40;;;;;;;4.37;71.34;99995.58;682222;1263;138957;-79
2024/03/11 08:10:06;;;;;;;23.20;10.80;;;;;;;4.30;72.45;99992.62;681849;1263;196371;-79
2024/03/11 08:25:13;;;;;;;20.00;8.90;;;;;;;4.27;74.04;100000.96;682199;1260;138892;-79
2024/03/11 08:40:19;;;;;;;52.00;17.00;;;;;;;4.24;75.71;99999.10;681796;1262;139525;-80
2024/03/11 08:55:23;;;;;;;66.20;22.50;;;;;;;4.16;78.28;99991.81;681814;1260;141161;-82
2024/03/11 09:10:27;;;;;;;32.40;14.30;;;;;;;4.17;79.76;99998.52;681797;1260;139391;-80
2024/03/11 09:25:31;;;;;;;35.80;14.40;;;;;;;4.18;80.04;99988.55;681905;1271;138774;-78
2024/03/11 09:40:36;;;;;;;142.80;47.70;;;;;;;4.10;81.66;99976.93;681946;1264;139368;-79
2024/03/11 09:55:43;;;;;;;24.30;11.20;;;;;;;4.16;83.55;99984.35;682080;1262;139024;-81
2024/03/11 10:11:18;;;;;;;21.10;10.70;;;;;;;4.38;84.09;99985.13;681658;1262;140361;-79
2024/03/11 10:26:27;;;;;;;36.30;18.00;;;;;;;4.58;84.84;99979.32;681958;1262;140171;-80
2024/03/11 10:41:31;;;;;;;143.30;38.40;;;;;;;4.65;85.54;99963.23;681841;1264;138614;-79
2024/03/11 10:56:35;;;;;;;180.50;57.40;;;;;;;4.72;87.08;99959.67;682214;1264;137501;-79
2024/03/11 11:11:51;;;;;;;523.60;157.10;;;;;;;4.73;86.75;99973.83;682206;1262;139860;-79
2024/03/11 11:27:05;;;;;;;858.80;299.20;;;;;;;4.71;88.02;99973.92;682139;1260;141492;-79
2024/03/11 11:42:37;;;;;;;308.70;106.10;;;;;;;4.97;87.66;99962.44;682334;1263;139725;-79
2024/03/11 11:57:41;;;;;;;36.00;17.10;;;;;;;5.03;87.87;99957.17;682158;1266;140072;-79
2024/03/11 12:12:49;;;;;;;42.00;21.30;;;;;;;5.10;88.76;99953.08;682392;1262;139477;-80
2024/03/11 12:28:03;;;;;;;76.10;29.60;;;;;;;5.11;87.85;99965.83;681762;1263;140157;-80
2024/03/11 12:43:19;;;;;;;54.60;25.00;;;;;;;5.16;87.69;99959.92;682053;1261;139533;-81
2024/03/11 12:58:25;;;;;;;42.10;18.30;;;;;;;5.27;86.96;99959.85;682001;1262;138999;-81
2024/03/11 13:13:32;;;;;;;53.20;31.50;;;;;;;5.41;87.47;99958.51;681944;1264;139641;-81
2024/03/11 13:28:36;;;;;;;35.80;18.00;;;;;;;5.51;87.81;99953.60;681882;1265;139173;-81
2024/03/11 13:43:39;;;;;;;194.00;65.10;;;;;;;5.71;88.45;99943.48;681917;1264;139282;-83
2024/03/11 13:58:45;;;;;;;108.00;44.50;;;;;;;5.75;88.89;99946.73;681894;1264;139999;-80
2024/03/11 14:13:48;;;;;;;58.10;27.60;;;;;;;6.02;88.99;99937.77;682209;1264;138992;-81
2024/03/11 14:28:53;;;;;;;54.70;22.90;;;;;;;6.21;88.62;99926.80;681864;1276;139056;-80
2024/03/11 14:43:57;;;;;;;59.00;25.70;;;;;;;6.37;89.22;99924.80;682293;1265;140441;-81
2024/03/11 14:59:03;;;;;;;56.00;23.20;;;;;;;6.47;89.47;99930.98;682265;1262;138403;-81
2024/03/11 15:14:06;;;;;;;48.10;19.50;;;;;;;6.63;88.90;99933.78;682236;1264;139171;-80
2024/03/11 15:29:11;;;;;;;91.20;25.40;;;;;;;6.59;89.52;99937.54;681848;1264;139513;-80
2024/03/11 15:44:16;;;;;;;92.20;32.70;;;;;;;6.64;90.14;99938.16;681851;1265;139920;-80
2024/03/11 15:59:20;;;;;;;93.20;31.20;;;;;;;6.74;90.44;99935.69;681595;1265;139808;-80
2024/03/11 16:14:24;;;;;;;48.50;21.20;;;;;;;6.79;90.35;99933.73;681849;1265;138629;-81
2024/03/11 16:29:30;;;;;;;44.90;18.20;;;;;;;6.94;90.08;99955.21;681619;1265;138652;-81
2024/03/11 16:44:35;;;;;;;57.60;22.30;;;;;;;6.90;90.54;99967.98;681698;1261;138718;-80
2024/03/11 16:59:39;;;;;;;239.10;90.60;;;;;;;7.01;90.50;99978.11;681824;1274;139013;-80
2024/03/11 17:14:43;;;;;;;79.20;25.20;;;;;;;6.97;90.43;99979.95;682021;1264;138896;-81
2024/03/11 17:29:49;;;;;;;44.30;19.40;;;;;;;7.06;90.12;99980.84;682249;1265;140751;-80
2024/03/11 17:44:52;;;;;;;36.80;17.90;;;;;;;7.03;89.31;99986.29;681933;1274;139601;-80
2024/03/11 17:59:57;;;;;;;49.70;25.00;;;;;;;7.12;89.20;99987.52;682182;1264;140121;-80
2024/03/11 18:15:07;;;;;;;46.30;22.40;;;;;;;7.08;89.06;99990.05;682124;1263;139144;-79
2024/03/11 18:30:13;;;;;;;37.00;18.40;;;;;;;7.13;88.94;99996.48;682187;1260;138840;-80
2024/03/11 18:45:17;;;;;;;47.00;19.40;;;;;;;7.09;89.29;99997.16;681935;1264;138550;-80
2024/03/11 19:00:28;;;;;;;41.00;19.70;;;;;;;7.12;88.34;100005.27;681951;1263;139096;-80
2024/03/11 19:15:31;;;;;;;61.50;23.90;;;;;;;7.07;88.12;100007.20;681804;1266;138924;-79
2024/03/11 19:30:37;;;;;;;70.20;23.70;;;;;;;6.92;89.35;100007.84;682065;1261;140251;-79
2024/03/11 19:46:03;;;;;;;88.60;37.80;;;;;;;6.81;89.29;100008.13;681960;1260;139506;-79
2024/03/11 20:01:39;;;;;;;91.50;35.70;;;;;;;6.74;90.03;100003.14;682069;1260;139115;-80
2024/03/11 20:16:58;;;;;;;149.30;62.50;;;;;;;6.72;89.84;100007.23;681822;1264;309695;-79
2024/03/11 20:32:11;;;;;;;40.10;18.50;;;;;;;6.75;89.83;100013.66;682149;1261;140443;-80
2024/03/11 20:47:15;;;;;;;35.90;17.70;;;;;;;6.86;89.63;100011.25;682179;1261;138706;-80
2024/03/11 21:02:19;;;;;;;86.20;30.60;;;;;;;6.88;89.37;100012.47;682179;1260;138938;-78
2024/03/11 21:17:27;;;;;;;73.20;33.40;;;;;;;6.82;89.88;100012.58;681738;1264;139144;-78
2024/03/11 21:32:34;;;;;;;;;;;;;;;6.96;89.88;100009.45;682050;1261;139495;-79
2024/03/11 21:47:40;;;;;;;48.80;19.30;;;;;;;7.16;90.36;100008.23;681935;1261;125175;-78
2024/03/11 22:02:44;;;;;;;41.20;19.00;;;;;;;7.27;90.05;100013.51;681932;1260;140320;-78
2024/03/11 22:17:49;;;;;;;59.10;27.40;;;;;;;7.33;90.28;100009.71;682092;1260;139384;-78
2024/03/11 22:32:52;;;;;;;37.90;18.40;;;;;;;7.42;90.69;100007.92;681733;1261;140278;-79
2024/03/11 22:47:56;;;;;;;42.90;19.20;;;;;;;7.47;90.90;100007.55;682081;1265;140344;-78
2024/03/11 23:03:01;;;;;;;34.90;18.70;;;;;;;7.46;91.30;100004.49;682043;1261;140062;-78
2024/03/11 23:18:05;;;;;;;38.50;21.10;;;;;;;7.52;91.81;100001.04;682026;1264;140617;-78
2024/03/11 23:33:11;;;;;;;41.50;19.40;;;;;;;7.61;92.00;99998.95;681966;1263;139582;-79
2024/03/11 23:48:24;;;;;;;38.80;18.80;;;;;;;7.67;92.57;99996.05;682045;1266;138937;-79
